sensor_id;sensor_type;location;lat;lon;timestamp;P1;durP1;ratioP1;P2;durP2;ratioP2
61911;SDS011;49973;52.084;5.412;2023-04-28T00:01:11;6.00;;;3.17;;
61911;SDS011;49973;52.084;5.412;2023-04-28T00:03:40;7.10;;;3.37;;
61911;SDS011;49973;52.084;5.412;2023-04-28T00:06:09;9.20;;;3.77;;
61911;SDS011;49973;52.084;5.412;2023-04-28T00:08:39;7.60;;;3.83;;
61911;SDS011;49973;52.084;5.412;2023-04-28T00:11:08;8.67;;;3.50;;
61911;SDS011;49973;52.084;5.412;2023-04-28T00:13:37;13.13;;;4.53;;
61911;SDS011;49973;52.084;5.412;2023-04-28T00:16:06;7.27;;;3.20;;
61911;SDS011;49973;52.084;5.412;2023-04-28T00:18:34;5.50;;;3.47;;
61911;SDS011;49973;52.084;5.412;2023-04-28T00:21:03;7.57;;;3.80;;
61911;SDS011;49973;52.084;5.412;2023-04-28T00:23:32;10.10;;;3.60;;
61911;SDS011;49973;52.084;5.412;2023-04-28T00:26:02;7.70;;;3.57;;
61911;SDS011;49973;52.084;5.412;2023-04-28T00:28:31;4.93;;;3.60;;
61911;SDS011;49973;52.084;5.412;2023-04-28T00:31:01;9.80;;;3.90;;
61911;SDS011;49973;52.084;5.412;2023-04-28T00:33:29;11.50;;;3.53;;
61911;SDS011;49973;52.084;5.412;2023-04-28T00:35:58;5.23;;;3.30;;
61911;SDS011;49973;52.084;5.412;2023-04-28T00:38:27;9.67;;;3.70;;
61911;SDS011;49973;52.084;5.412;2023-04-28T00:40:56;6.50;;;3.43;;
61911;SDS011;49973;52.084;5.412;2023-04-28T00:43:26;6.10;;;3.43;;
61911;SDS011;49973;52.084;5.412;2023-04-28T00:45:54;3.57;;;2.87;;
61911;SDS011;49973;52.084;5.412;2023-04-28T00:48:24;3.83;;;2.83;;
61911;SDS011;49973;52.084;5.412;2023-04-28T00:50:53;4.23;;;3.07;;
61911;SDS011;49973;52.084;5.412;2023-04-28T00:53:22;6.80;;;3.70;;
61911;SDS011;49973;52.084;5.412;2023-04-28T00:55:51;6.27;;;3.73;;
61911;SDS011;49973;52.084;5.412;2023-04-28T00:58:23;6.03;;;3.37;;
61911;SDS011;49973;52.084;5.412;2023-04-28T01:01:00;5.90;;;3.57;;
61911;SDS011;49973;52.084;5.412;2023-04-28T01:03:30;5.83;;;3.10;;
61911;SDS011;49973;52.084;5.412;2023-04-28T01:06:01;5.70;;;2.83;;
61911;SDS011;49973;52.084;5.412;2023-04-28T01:08:31;6.00;;;3.00;;
61911;SDS011;49973;52.084;5.412;2023-04-28T01:11:03;7.10;;;3.40;;
61911;SDS011;49973;52.084;5.412;2023-04-28T01:13:56;4.90;;;3.60;;
61911;SDS011;49973;52.084;5.412;2023-04-28T01:16:27;6.90;;;3.13;;
61911;SDS011;49973;52.084;5.412;2023-04-28T01:18:59;7.40;;;3.33;;
61911;SDS011;49973;52.084;5.412;2023-04-28T01:21:31;6.40;;;2.73;;
61911;SDS011;49973;52.084;5.412;2023-04-28T01:24:20;6.63;;;3.20;;
61911;SDS011;49973;52.084;5.412;2023-04-28T01:26:49;6.63;;;3.00;;
61911;SDS011;49973;52.084;5.412;2023-04-28T01:29:18;8.63;;;3.27;;
61911;SDS011;49973;52.084;5.412;2023-04-28T01:31:46;4.83;;;2.70;;
61911;SDS011;49973;52.084;5.412;2023-04-28T01:34:16;4.27;;;2.70;;
61911;SDS011;49973;52.084;5.412;2023-04-28T01:36:44;4.20;;;2.77;;
61911;SDS011;49973;52.084;5.412;2023-04-28T01:39:13;5.23;;;2.93;;
61911;SDS011;49973;52.084;5.412;2023-04-28T01:41:43;3.80;;;2.43;;
61911;SDS011;49973;52.084;5.412;2023-04-28T01:44:12;4.30;;;2.60;;
61911;SDS011;49973;52.084;5.412;2023-04-28T01:46:41;4.87;;;2.60;;
61911;SDS011;49973;52.084;5.412;2023-04-28T01:49:09;3.20;;;2.40;;
61911;SDS011;49973;52.084;5.412;2023-04-28T01:51:39;4.60;;;2.80;;
61911;SDS011;49973;52.084;5.412;2023-04-28T01:54:09;5.20;;;2.90;;
61911;SDS011;49973;52.084;5.412;2023-04-28T01:56:38;6.53;;;2.90;;
61911;SDS011;49973;52.084;5.412;2023-04-28T01:59:08;4.83;;;2.93;;
61911;SDS011;49973;52.084;5.412;2023-04-28T02:01:37;10.63;;;2.93;;
61911;SDS011;49973;52.084;5.412;2023-04-28T02:04:05;4.10;;;3.07;;
61911;SDS011;49973;52.084;5.412;2023-04-28T02:06:36;4.30;;;3.00;;
61911;SDS011;49973;52.084;5.412;2023-04-28T02:09:04;4.03;;;2.80;;
61911;SDS011;49973;52.084;5.412;2023-04-28T02:11:33;6.27;;;2.67;;
61911;SDS011;49973;52.084;5.412;2023-04-28T02:14:02;4.03;;;2.80;;
61911;SDS011;49973;52.084;5.412;2023-04-28T02:16:32;5.97;;;3.40;;
61911;SDS011;49973;52.084;5.412;2023-04-28T02:19:00;4.80;;;3.33;;
61911;SDS011;49973;52.084;5.412;2023-04-28T02:21:29;3.23;;;2.40;;
61911;SDS011;49973;52.084;5.412;2023-04-28T02:23:58;3.37;;;2.70;;
61911;SDS011;49973;52.084;5.412;2023-04-28T02:26:30;6.63;;;2.90;;
61911;SDS011;49973;52.084;5.412;2023-04-28T02:29:00;4.40;;;2.57;;
61911;SDS011;49973;52.084;5.412;2023-04-28T02:31:32;5.53;;;2.73;;
61911;SDS011;49973;52.084;5.412;2023-04-28T02:34:01;5.90;;;2.83;;
61911;SDS011;49973;52.084;5.412;2023-04-28T02:36:30;3.83;;;2.87;;
61911;SDS011;49973;52.084;5.412;2023-04-28T02:38:59;4.13;;;2.93;;
61911;SDS011;49973;52.084;5.412;2023-04-28T02:41:27;7.27;;;3.07;;
61911;SDS011;49973;52.084;5.412;2023-04-28T02:43:57;7.93;;;3.10;;
61911;SDS011;49973;52.084;5.412;2023-04-28T02:46:26;4.23;;;3.23;;
61911;SDS011;49973;52.084;5.412;2023-04-28T02:48:56;6.67;;;2.50;;
61911;SDS011;49973;52.084;5.412;2023-04-28T02:51:24;6.63;;;3.50;;
61911;SDS011;49973;52.084;5.412;2023-04-28T02:53:53;13.23;;;3.73;;
61911;SDS011;49973;52.084;5.412;2023-04-28T02:56:22;6.73;;;3.10;;
61911;SDS011;49973;52.084;5.412;2023-04-28T02:58:51;7.17;;;3.53;;
61911;SDS011;49973;52.084;5.412;2023-04-28T03:01:20;5.43;;;3.00;;
61911;SDS011;49973;52.084;5.412;2023-04-28T03:03:48;5.57;;;3.23;;
61911;SDS011;49973;52.084;5.412;2023-04-28T03:06:18;6.50;;;2.90;;
61911;SDS011;49973;52.084;5.412;2023-04-28T03:08:48;5.73;;;3.37;;
61911;SDS011;49973;52.084;5.412;2023-04-28T03:11:16;4.70;;;2.73;;
61911;SDS011;49973;52.084;5.412;2023-04-28T03:13:45;7.73;;;3.50;;
61911;SDS011;49973;52.084;5.412;2023-04-28T03:16:13;6.17;;;3.50;;
61911;SDS011;49973;52.084;5.412;2023-04-28T03:18:42;7.13;;;3.10;;
61911;SDS011;49973;52.084;5.412;2023-04-28T03:21:10;4.70;;;3.00;;
61911;SDS011;49973;52.084;5.412;2023-04-28T03:23:40;4.97;;;3.57;;
61911;SDS011;49973;52.084;5.412;2023-04-28T03:26:09;6.63;;;3.37;;
61911;SDS011;49973;52.084;5.412;2023-04-28T03:28:38;3.93;;;3.53;;
61911;SDS011;49973;52.084;5.412;2023-04-28T03:31:06;5.70;;;3.07;;
61911;SDS011;49973;52.084;5.412;2023-04-28T03:33:35;9.80;;;3.30;;
61911;SDS011;49973;52.084;5.412;2023-04-28T03:36:04;4.37;;;2.97;;
61911;SDS011;49973;52.084;5.412;2023-04-28T03:38:33;4.80;;;3.10;;
61911;SDS011;49973;52.084;5.412;2023-04-28T03:41:03;9.00;;;3.27;;
61911;SDS011;49973;52.084;5.412;2023-04-28T03:43:32;5.97;;;3.37;;
61911;SDS011;49973;52.084;5.412;2023-04-28T03:46:16;6.97;;;3.60;;
61911;SDS011;49973;52.084;5.412;2023-04-28T03:48:45;5.63;;;3.60;;
61911;SDS011;49973;52.084;5.412;2023-04-28T03:51:14;4.23;;;2.90;;
61911;SDS011;49973;52.084;5.412;2023-04-28T03:53:42;11.77;;;2.70;;
61911;SDS011;49973;52.084;5.412;2023-04-28T03:56:13;8.93;;;3.50;;
61911;SDS011;49973;52.084;5.412;2023-04-28T03:58:41;7.20;;;3.10;;
61911;SDS011;49973;52.084;5.412;2023-04-28T04:01:10;6.73;;;2.77;;
61911;SDS011;49973;52.084;5.412;2023-04-28T04:03:39;5.80;;;2.57;;
61911;SDS011;49973;52.084;5.412;2023-04-28T04:06:08;8.10;;;3.37;;
61911;SDS011;49973;52.084;5.412;2023-04-28T04:08:36;4.70;;;3.00;;
61911;SDS011;49973;52.084;5.412;2023-04-28T04:11:05;9.67;;;3.20;;
61911;SDS011;49973;52.084;5.412;2023-04-28T04:13:35;5.87;;;3.10;;
61911;SDS011;49973;52.084;5.412;2023-04-28T04:16:08;4.40;;;3.33;;
61911;SDS011;49973;52.084;5.412;2023-04-28T04:18:37;10.57;;;3.37;;
61911;SDS011;49973;52.084;5.412;2023-04-28T04:21:15;5.53;;;2.80;;
61911;SDS011;49973;52.084;5.412;2023-04-28T04:23:44;6.30;;;2.93;;
61911;SDS011;49973;52.084;5.412;2023-04-28T04:26:13;4.97;;;3.23;;
61911;SDS011;49973;52.084;5.412;2023-04-28T04:28:43;6.23;;;2.97;;
61911;SDS011;49973;52.084;5.412;2023-04-28T04:31:12;4.67;;;3.23;;
61911;SDS011;49973;52.084;5.412;2023-04-28T04:33:42;6.37;;;3.07;;
61911;SDS011;49973;52.084;5.412;2023-04-28T04:36:11;8.60;;;3.33;;
61911;SDS011;49973;52.084;5.412;2023-04-28T04:38:39;4.17;;;3.00;;
61911;SDS011;49973;52.084;5.412;2023-04-28T04:41:14;5.07;;;3.10;;
61911;SDS011;49973;52.084;5.412;2023-04-28T04:43:44;5.63;;;3.37;;
61911;SDS011;49973;52.084;5.412;2023-04-28T04:46:13;5.77;;;3.77;;
61911;SDS011;49973;52.084;5.412;2023-04-28T04:48:42;6.00;;;3.50;;
61911;SDS011;49973;52.084;5.412;2023-04-28T04:51:11;7.13;;;3.10;;
61911;SDS011;49973;52.084;5.412;2023-04-28T04:53:40;5.20;;;3.00;;
61911;SDS011;49973;52.084;5.412;2023-04-28T04:56:09;5.40;;;3.37;;
61911;SDS011;49973;52.084;5.412;2023-04-28T04:58:38;6.03;;;3.40;;
61911;SDS011;49973;52.084;5.412;2023-04-28T05:01:26;8.00;;;3.37;;
61911;SDS011;49973;52.084;5.412;2023-04-28T05:03:55;4.87;;;3.00;;
61911;SDS011;49973;52.084;5.412;2023-04-28T05:06:24;7.33;;;4.17;;
61911;SDS011;49973;52.084;5.412;2023-04-28T05:08:52;6.80;;;3.70;;
61911;SDS011;49973;52.084;5.412;2023-04-28T05:11:22;5.37;;;3.83;;
61911;SDS011;49973;52.084;5.412;2023-04-28T05:13:51;7.07;;;4.07;;
61911;SDS011;49973;52.084;5.412;2023-04-28T05:16:20;8.47;;;3.73;;
61911;SDS011;49973;52.084;5.412;2023-04-28T05:19:02;6.33;;;3.80;;
61911;SDS011;49973;52.084;5.412;2023-04-28T05:21:30;6.47;;;4.33;;
61911;SDS011;49973;52.084;5.412;2023-04-28T05:23:59;5.53;;;3.93;;
61911;SDS011;49973;52.084;5.412;2023-04-28T05:26:29;9.07;;;4.10;;
61911;SDS011;49973;52.084;5.412;2023-04-28T05:29:04;6.93;;;4.03;;
61911;SDS011;49973;52.084;5.412;2023-04-28T05:31:33;6.63;;;4.40;;
61911;SDS011;49973;52.084;5.412;2023-04-28T05:34:03;7.97;;;4.93;;
61911;SDS011;49973;52.084;5.412;2023-04-28T05:36:32;8.70;;;4.40;;
61911;SDS011;49973;52.084;5.412;2023-04-28T05:39:01;8.97;;;4.63;;
61911;SDS011;49973;52.084;5.412;2023-04-28T05:41:29;9.10;;;5.13;;
61911;SDS011;49973;52.084;5.412;2023-04-28T05:43:58;11.00;;;4.60;;
61911;SDS011;49973;52.084;5.412;2023-04-28T05:46:28;8.83;;;4.60;;
61911;SDS011;49973;52.084;5.412;2023-04-28T05:49:00;7.80;;;4.60;;
61911;SDS011;49973;52.084;5.412;2023-04-28T05:51:35;16.07;;;5.90;;
61911;SDS011;49973;52.084;5.412;2023-04-28T05:54:04;10.63;;;5.60;;
61911;SDS011;49973;52.084;5.412;2023-04-28T05:56:39;11.03;;;4.97;;
61911;SDS011;49973;52.084;5.412;2023-04-28T05:59:08;9.97;;;5.63;;
61911;SDS011;49973;52.084;5.412;2023-04-28T06:01:37;16.27;;;6.50;;
61911;SDS011;49973;52.084;5.412;2023-04-28T06:04:05;16.00;;;6.90;;
61911;SDS011;49973;52.084;5.412;2023-04-28T06:06:36;11.43;;;6.07;;
61911;SDS011;49973;52.084;5.412;2023-04-28T06:09:05;14.43;;;6.67;;
61911;SDS011;49973;52.084;5.412;2023-04-28T06:11:34;8.93;;;5.97;;
61911;SDS011;49973;52.084;5.412;2023-04-28T06:14:03;10.43;;;6.60;;
61911;SDS011;49973;52.084;5.412;2023-04-28T06:16:32;11.87;;;7.03;;
61911;SDS011;49973;52.084;5.412;2023-04-28T06:19:02;10.73;;;6.70;;
61911;SDS011;49973;52.084;5.412;2023-04-28T06:21:30;13.17;;;6.57;;
61911;SDS011;49973;52.084;5.412;2023-04-28T06:24:00;11.03;;;6.87;;
61911;SDS011;49973;52.084;5.412;2023-04-28T06:26:30;12.10;;;7.07;;
61911;SDS011;49973;52.084;5.412;2023-04-28T06:28:59;11.57;;;6.40;;
61911;SDS011;49973;52.084;5.412;2023-04-28T06:31:29;10.73;;;6.80;;
61911;SDS011;49973;52.084;5.412;2023-04-28T06:33:57;8.90;;;6.53;;
61911;SDS011;49973;52.084;5.412;2023-04-28T06:36:26;11.07;;;6.87;;
61911;SDS011;49973;52.084;5.412;2023-04-28T06:38:55;13.50;;;7.20;;
61911;SDS011;49973;52.084;5.412;2023-04-28T06:41:26;15.03;;;6.43;;
61911;SDS011;49973;52.084;5.412;2023-04-28T06:43:55;13.77;;;7.13;;
61911;SDS011;49973;52.084;5.412;2023-04-28T06:46:28;12.47;;;6.77;;
61911;SDS011;49973;52.084;5.412;2023-04-28T06:48:57;12.77;;;7.13;;
61911;SDS011;49973;52.084;5.412;2023-04-28T06:51:26;10.17;;;6.70;;
61911;SDS011;49973;52.084;5.412;2023-04-28T06:53:55;13.20;;;7.70;;
61911;SDS011;49973;52.084;5.412;2023-04-28T06:56:25;13.03;;;7.50;;
61911;SDS011;49973;52.084;5.412;2023-04-28T06:58:55;10.37;;;6.90;;
61911;SDS011;49973;52.084;5.412;2023-04-28T07:01:24;11.47;;;7.63;;
61911;SDS011;49973;52.084;5.412;2023-04-28T07:03:53;13.70;;;7.53;;
61911;SDS011;49973;52.084;5.412;2023-04-28T07:06:22;15.93;;;7.43;;
61911;SDS011;49973;52.084;5.412;2023-04-28T07:08:50;12.00;;;7.77;;
61911;SDS011;49973;52.084;5.412;2023-04-28T07:11:19;12.50;;;7.20;;
61911;SDS011;49973;52.084;5.412;2023-04-28T07:13:50;17.70;;;7.63;;
61911;SDS011;49973;52.084;5.412;2023-04-28T07:16:19;18.43;;;8.40;;
61911;SDS011;49973;52.084;5.412;2023-04-28T07:18:48;10.80;;;6.77;;
61911;SDS011;49973;52.084;5.412;2023-04-28T07:21:17;22.13;;;7.97;;
61911;SDS011;49973;52.084;5.412;2023-04-28T07:23:45;13.50;;;8.17;;
61911;SDS011;49973;52.084;5.412;2023-04-28T07:26:14;15.43;;;7.97;;
61911;SDS011;49973;52.084;5.412;2023-04-28T07:28:43;15.20;;;8.03;;
61911;SDS011;49973;52.084;5.412;2023-04-28T07:31:13;20.40;;;9.00;;
61911;SDS011;49973;52.084;5.412;2023-04-28T07:33:41;13.97;;;8.43;;
61911;SDS011;49973;52.084;5.412;2023-04-28T07:36:10;13.77;;;7.67;;
61911;SDS011;49973;52.084;5.412;2023-04-28T07:38:39;10.57;;;7.30;;
61911;SDS011;49973;52.084;5.412;2023-04-28T07:41:07;12.23;;;8.07;;
61911;SDS011;49973;52.084;5.412;2023-04-28T07:43:37;12.27;;;8.23;;
61911;SDS011;49973;52.084;5.412;2023-04-28T07:46:06;19.50;;;8.20;;
61911;SDS011;49973;52.084;5.412;2023-04-28T07:48:37;15.97;;;8.40;;
61911;SDS011;49973;52.084;5.412;2023-04-28T07:51:05;14.10;;;8.17;;
61911;SDS011;49973;52.084;5.412;2023-04-28T07:53:34;12.03;;;7.83;;
61911;SDS011;49973;52.084;5.412;2023-04-28T07:56:03;12.87;;;8.00;;
61911;SDS011;49973;52.084;5.412;2023-04-28T07:58:32;15.50;;;8.57;;
61911;SDS011;49973;52.084;5.412;2023-04-28T08:01:01;13.50;;;7.37;;
61911;SDS011;49973;52.084;5.412;2023-04-28T08:03:29;11.57;;;8.00;;
61911;SDS011;49973;52.084;5.412;2023-04-28T08:06:00;10.53;;;7.43;;
61911;SDS011;49973;52.084;5.412;2023-04-28T08:08:28;13.77;;;7.70;;
61911;SDS011;49973;52.084;5.412;2023-04-28T08:10:58;12.67;;;8.53;;
61911;SDS011;49973;52.084;5.412;2023-04-28T08:13:26;13.90;;;8.27;;
61911;SDS011;49973;52.084;5.412;2023-04-28T08:15:55;15.23;;;8.70;;
61911;SDS011;49973;52.084;5.412;2023-04-28T08:18:26;16.57;;;8.80;;
61911;SDS011;49973;52.084;5.412;2023-04-28T08:20:55;13.27;;;9.13;;
61911;SDS011;49973;52.084;5.412;2023-04-28T08:23:25;16.03;;;9.20;;
61911;SDS011;49973;52.084;5.412;2023-04-28T08:25:54;12.77;;;8.33;;
61911;SDS011;49973;52.084;5.412;2023-04-28T08:28:22;15.33;;;9.43;;
61911;SDS011;49973;52.084;5.412;2023-04-28T08:30:52;17.63;;;10.67;;
61911;SDS011;49973;52.084;5.412;2023-04-28T08:33:21;18.03;;;10.57;;
61911;SDS011;49973;52.084;5.412;2023-04-28T08:35:50;18.07;;;10.60;;
61911;SDS011;49973;52.084;5.412;2023-04-28T08:38:18;18.97;;;9.60;;
61911;SDS011;49973;52.084;5.412;2023-04-28T08:40:51;18.10;;;9.63;;
61911;SDS011;49973;52.084;5.412;2023-04-28T08:43:20;22.60;;;12.07;;
61911;SDS011;49973;52.084;5.412;2023-04-28T08:45:48;21.63;;;12.07;;
61911;SDS011;49973;52.084;5.412;2023-04-28T08:48:18;17.67;;;10.87;;
61911;SDS011;49973;52.084;5.412;2023-04-28T08:50:48;20.67;;;11.80;;
61911;SDS011;49973;52.084;5.412;2023-04-28T08:53:20;23.80;;;12.30;;
61911;SDS011;49973;52.084;5.412;2023-04-28T08:55:53;22.17;;;12.33;;
61911;SDS011;49973;52.084;5.412;2023-04-28T08:58:23;19.10;;;12.00;;
61911;SDS011;49973;52.084;5.412;2023-04-28T09:00:52;20.70;;;12.27;;
61911;SDS011;49973;52.084;5.412;2023-04-28T09:03:22;20.23;;;11.40;;
61911;SDS011;49973;52.084;5.412;2023-04-28T09:05:51;19.37;;;11.00;;
61911;SDS011;49973;52.084;5.412;2023-04-28T09:08:19;20.30;;;11.60;;
61911;SDS011;49973;52.084;5.412;2023-04-28T09:10:49;20.53;;;12.33;;
61911;SDS011;49973;52.084;5.412;2023-04-28T09:13:35;19.47;;;12.30;;
61911;SDS011;49973;52.084;5.412;2023-04-28T09:16:04;23.70;;;12.73;;
61911;SDS011;49973;52.084;5.412;2023-04-28T09:18:33;18.53;;;11.40;;
61911;SDS011;49973;52.084;5.412;2023-04-28T09:21:02;20.30;;;11.70;;
61911;SDS011;49973;52.084;5.412;2023-04-28T09:23:32;25.03;;;14.03;;
61911;SDS011;49973;52.084;5.412;2023-04-28T09:26:02;21.87;;;11.50;;
61911;SDS011;49973;52.084;5.412;2023-04-28T09:28:34;16.87;;;10.87;;
61911;SDS011;49973;52.084;5.412;2023-04-28T09:31:03;19.47;;;11.97;;
61911;SDS011;49973;52.084;5.412;2023-04-28T09:33:31;17.70;;;11.73;;
61911;SDS011;49973;52.084;5.412;2023-04-28T09:36:00;29.47;;;12.63;;
61911;SDS011;49973;52.084;5.412;2023-04-28T09:38:29;22.00;;;13.13;;
61911;SDS011;49973;52.084;5.412;2023-04-28T09:40:58;23.30;;;12.33;;
61911;SDS011;49973;52.084;5.412;2023-04-28T09:43:28;19.63;;;11.87;;
61911;SDS011;49973;52.084;5.412;2023-04-28T09:45:59;27.33;;;13.40;;
61911;SDS011;49973;52.084;5.412;2023-04-28T09:48:29;22.57;;;13.13;;
61911;SDS011;49973;52.084;5.412;2023-04-28T09:51:00;21.77;;;13.03;;
61911;SDS011;49973;52.084;5.412;2023-04-28T09:53:30;18.17;;;12.20;;
61911;SDS011;49973;52.084;5.412;2023-04-28T09:55:59;20.27;;;13.80;;
61911;SDS011;49973;52.084;5.412;2023-04-28T09:58:29;24.50;;;12.67;;
61911;SDS011;49973;52.084;5.412;2023-04-28T10:01:00;17.07;;;11.57;;
61911;SDS011;49973;52.084;5.412;2023-04-28T10:03:29;17.47;;;12.93;;
61911;SDS011;49973;52.084;5.412;2023-04-28T10:05:58;20.13;;;13.33;;
61911;SDS011;49973;52.084;5.412;2023-04-28T10:08:28;18.03;;;12.13;;
61911;SDS011;49973;52.084;5.412;2023-04-28T10:10:57;16.57;;;12.30;;
61911;SDS011;49973;52.084;5.412;2023-04-28T10:13:26;14.13;;;10.10;;
61911;SDS011;49973;52.084;5.412;2023-04-28T10:15:55;15.43;;;10.33;;
61911;SDS011;49973;52.084;5.412;2023-04-28T10:18:25;14.20;;;10.47;;
61911;SDS011;49973;52.084;5.412;2023-04-28T10:20:56;15.70;;;10.83;;
61911;SDS011;49973;52.084;5.412;2023-04-28T10:26:26;15.53;;;10.07;;
61911;SDS011;49973;52.084;5.412;2023-04-28T10:29:22;11.00;;;8.43;;
61911;SDS011;49973;52.084;5.412;2023-04-28T10:34:47;15.40;;;9.13;;
61911;SDS011;49973;52.084;5.412;2023-04-28T10:37:15;11.97;;;9.53;;
61911;SDS011;49973;52.084;5.412;2023-04-28T10:42:58;13.80;;;7.93;;
61911;SDS011;49973;52.084;5.412;2023-04-28T10:51:28;14.57;;;9.77;;
61911;SDS011;49973;52.084;5.412;2023-04-28T10:59:48;15.70;;;9.07;;
61911;SDS011;49973;52.084;5.412;2023-04-28T11:05:14;14.87;;;9.47;;
61911;SDS011;49973;52.084;5.412;2023-04-28T11:11:12;21.23;;;10.27;;
61911;SDS011;49973;52.084;5.412;2023-04-28T11:13:41;15.13;;;9.10;;
61911;SDS011;49973;52.084;5.412;2023-04-28T11:16:16;15.50;;;10.07;;
61911;SDS011;49973;52.084;5.412;2023-04-28T11:18:54;19.97;;;11.87;;
61911;SDS011;49973;52.084;5.412;2023-04-28T11:21:30;17.07;;;11.07;;
61911;SDS011;49973;52.084;5.412;2023-04-28T11:24:00;18.10;;;11.87;;
61911;SDS011;49973;52.084;5.412;2023-04-28T11:26:38;20.17;;;11.67;;
61911;SDS011;49973;52.084;5.412;2023-04-28T11:29:07;18.73;;;10.07;;
61911;SDS011;49973;52.084;5.412;2023-04-28T11:31:36;17.80;;;10.53;;
61911;SDS011;49973;52.084;5.412;2023-04-28T11:34:06;22.00;;;10.70;;
61911;SDS011;49973;52.084;5.412;2023-04-28T11:36:40;21.10;;;12.40;;
61911;SDS011;49973;52.084;5.412;2023-04-28T11:39:10;16.70;;;8.83;;
61911;SDS011;49973;52.084;5.412;2023-04-28T11:41:41;12.33;;;7.77;;
61911;SDS011;49973;52.084;5.412;2023-04-28T11:44:12;11.20;;;6.47;;
61911;SDS011;49973;52.084;5.412;2023-04-28T11:46:45;9.80;;;6.27;;
61911;SDS011;49973;52.084;5.412;2023-04-28T11:49:17;10.77;;;6.50;;
61911;SDS011;49973;52.084;5.412;2023-04-28T11:51:46;11.57;;;7.00;;
61911;SDS011;49973;52.084;5.412;2023-04-28T11:54:19;9.77;;;6.83;;
61911;SDS011;49973;52.084;5.412;2023-04-28T11:56:50;12.87;;;6.73;;
61911;SDS011;49973;52.084;5.412;2023-04-28T11:59:22;12.73;;;6.50;;
61911;SDS011;49973;52.084;5.412;2023-04-28T12:01:52;16.30;;;6.23;;
61911;SDS011;49973;52.084;5.412;2023-04-28T12:04:26;12.70;;;5.20;;
61911;SDS011;49973;52.084;5.412;2023-04-28T12:07:03;9.33;;;5.37;;
61911;SDS011;49973;52.084;5.412;2023-04-28T12:09:33;9.53;;;5.33;;
61911;SDS011;49973;52.084;5.412;2023-04-28T12:12:04;14.43;;;6.63;;
61911;SDS011;49973;52.084;5.412;2023-04-28T12:17:23;11.33;;;6.20;;
61911;SDS011;49973;52.084;5.412;2023-04-28T12:19:52;10.17;;;5.60;;
61911;SDS011;49973;52.084;5.412;2023-04-28T12:22:21;9.27;;;5.80;;
61911;SDS011;49973;52.084;5.412;2023-04-28T12:25:03;13.00;;;6.23;;
61911;SDS011;49973;52.084;5.412;2023-04-28T12:27:35;7.30;;;4.93;;
61911;SDS011;49973;52.084;5.412;2023-04-28T12:30:25;8.03;;;4.47;;
61911;SDS011;49973;52.084;5.412;2023-04-28T12:32:54;7.43;;;3.80;;
61911;SDS011;49973;52.084;5.412;2023-04-28T12:35:24;6.53;;;4.30;;
61911;SDS011;49973;52.084;5.412;2023-04-28T12:37:53;6.70;;;3.70;;
61911;SDS011;49973;52.084;5.412;2023-04-28T12:40:24;8.13;;;4.37;;
61911;SDS011;49973;52.084;5.412;2023-04-28T12:42:54;4.53;;;3.10;;
61911;SDS011;49973;52.084;5.412;2023-04-28T12:45:23;8.00;;;2.97;;
61911;SDS011;49973;52.084;5.412;2023-04-28T12:47:52;4.70;;;2.50;;
61911;SDS011;49973;52.084;5.412;2023-04-28T12:50:21;2.97;;;1.73;;
61911;SDS011;49973;52.084;5.412;2023-04-28T12:52:50;3.23;;;2.47;;
61911;SDS011;49973;52.084;5.412;2023-04-28T12:55:18;3.37;;;2.00;;
61911;SDS011;49973;52.084;5.412;2023-04-28T12:57:47;3.20;;;2.30;;
61911;SDS011;49973;52.084;5.412;2023-04-28T13:00:17;4.07;;;2.27;;
61911;SDS011;49973;52.084;5.412;2023-04-28T13:02:49;4.20;;;2.83;;
61911;SDS011;49973;52.084;5.412;2023-04-28T13:05:19;3.50;;;2.50;;
61911;SDS011;49973;52.084;5.412;2023-04-28T13:07:47;3.30;;;2.10;;
61911;SDS011;49973;52.084;5.412;2023-04-28T13:10:16;2.37;;;1.90;;
61911;SDS011;49973;52.084;5.412;2023-04-28T13:12:47;3.27;;;2.00;;
61911;SDS011;49973;52.084;5.412;2023-04-28T13:15:17;2.83;;;2.10;;
61911;SDS011;49973;52.084;5.412;2023-04-28T13:17:46;3.90;;;2.17;;
61911;SDS011;49973;52.084;5.412;2023-04-28T13:20:15;4.03;;;2.80;;
61911;SDS011;49973;52.084;5.412;2023-04-28T13:22:43;3.60;;;2.67;;
61911;SDS011;49973;52.084;5.412;2023-04-28T13:25:12;6.47;;;3.50;;
61911;SDS011;49973;52.084;5.412;2023-04-28T13:27:41;5.10;;;3.27;;
61911;SDS011;49973;52.084;5.412;2023-04-28T13:30:10;6.37;;;4.10;;
61911;SDS011;49973;52.084;5.412;2023-04-28T13:32:40;7.47;;;4.77;;
61911;SDS011;49973;52.084;5.412;2023-04-28T13:35:09;5.10;;;3.77;;
61911;SDS011;49973;52.084;5.412;2023-04-28T13:37:38;5.20;;;4.00;;
61911;SDS011;49973;52.084;5.412;2023-04-28T13:40:11;5.70;;;4.43;;
61911;SDS011;49973;52.084;5.412;2023-04-28T13:42:40;4.70;;;3.60;;
61911;SDS011;49973;52.084;5.412;2023-04-28T13:45:09;4.73;;;4.23;;
61911;SDS011;49973;52.084;5.412;2023-04-28T13:47:38;8.37;;;5.77;;
61911;SDS011;49973;52.084;5.412;2023-04-28T13:50:08;10.07;;;6.73;;
61911;SDS011;49973;52.084;5.412;2023-04-28T13:52:37;6.60;;;4.87;;
61911;SDS011;49973;52.084;5.412;2023-04-28T13:55:06;5.80;;;4.60;;
61911;SDS011;49973;52.084;5.412;2023-04-28T13:57:35;6.93;;;5.00;;
61911;SDS011;49973;52.084;5.412;2023-04-28T14:00:04;4.23;;;3.80;;
61911;SDS011;49973;52.084;5.412;2023-04-28T14:02:35;4.33;;;3.90;;
61911;SDS011;49973;52.084;5.412;2023-04-28T14:05:05;4.77;;;4.03;;
61911;SDS011;49973;52.084;5.412;2023-04-28T14:07:36;4.00;;;3.60;;
61911;SDS011;49973;52.084;5.412;2023-04-28T14:10:05;4.87;;;4.07;;
61911;SDS011;49973;52.084;5.412;2023-04-28T14:12:34;4.53;;;4.03;;
61911;SDS011;49973;52.084;5.412;2023-04-28T14:15:03;6.57;;;3.60;;
61911;SDS011;49973;52.084;5.412;2023-04-28T14:17:32;3.30;;;3.00;;
61911;SDS011;49973;52.084;5.412;2023-04-28T14:20:02;5.73;;;4.30;;
61911;SDS011;49973;52.084;5.412;2023-04-28T14:22:31;6.20;;;4.60;;
61911;SDS011;49973;52.084;5.412;2023-04-28T14:25:01;4.27;;;3.53;;
61911;SDS011;49973;52.084;5.412;2023-04-28T14:27:30;9.60;;;5.40;;
61911;SDS011;49973;52.084;5.412;2023-04-28T14:29:58;6.13;;;4.00;;
61911;SDS011;49973;52.084;5.412;2023-04-28T14:32:27;5.27;;;4.07;;
61911;SDS011;49973;52.084;5.412;2023-04-28T14:34:56;10.53;;;4.67;;
61911;SDS011;49973;52.084;5.412;2023-04-28T14:37:25;6.50;;;4.70;;
61911;SDS011;49973;52.084;5.412;2023-04-28T14:39:53;7.10;;;4.83;;
61911;SDS011;49973;52.084;5.412;2023-04-28T14:42:26;13.13;;;5.03;;
61911;SDS011;49973;52.084;5.412;2023-04-28T14:44:56;11.37;;;5.83;;
61911;SDS011;49973;52.084;5.412;2023-04-28T14:47:25;6.97;;;5.03;;
61911;SDS011;49973;52.084;5.412;2023-04-28T14:49:53;9.03;;;4.83;;
61911;SDS011;49973;52.084;5.412;2023-04-28T14:52:22;12.07;;;7.27;;
61911;SDS011;49973;52.084;5.412;2023-04-28T14:54:53;12.90;;;7.00;;
61911;SDS011;49973;52.084;5.412;2023-04-28T14:57:24;10.10;;;6.10;;
61911;SDS011;49973;52.084;5.412;2023-04-28T14:59:53;9.57;;;6.17;;
61911;SDS011;49973;52.084;5.412;2023-04-28T15:02:21;9.60;;;5.93;;
61911;SDS011;49973;52.084;5.412;2023-04-28T15:04:54;12.50;;;5.87;;
61911;SDS011;49973;52.084;5.412;2023-04-28T15:07:24;11.17;;;6.90;;
61911;SDS011;49973;52.084;5.412;2023-04-28T15:09:56;13.97;;;6.83;;
61911;SDS011;49973;52.084;5.412;2023-04-28T15:12:27;11.03;;;6.77;;
61911;SDS011;49973;52.084;5.412;2023-04-28T15:14:57;10.53;;;6.77;;
61911;SDS011;49973;52.084;5.412;2023-04-28T15:17:26;12.20;;;7.67;;
61911;SDS011;49973;52.084;5.412;2023-04-28T15:19:54;9.83;;;5.87;;
61911;SDS011;49973;52.084;5.412;2023-04-28T15:22:23;13.67;;;7.03;;
61911;SDS011;49973;52.084;5.412;2023-04-28T15:24:52;13.20;;;7.27;;
61911;SDS011;49973;52.084;5.412;2023-04-28T15:27:21;16.37;;;9.97;;